Carlsbad, CA

4:55 AM PDT on July 27, 2016 (GMT -0700)
McClellan-Palomar | | Change Station

Elev 328 ft 33.13 °N, 117.28 °W | Updated 2 minutes ago

Mostly Cloudy
Mostly Cloudy
70 °F
Feels Like 70 °F
N
4
Wind Variable Wind from NNW

Today
High -- | Low -- °F
--% Chance of Precip.
Yesterday
High -- | Low -- °F
Precip. -- in
Pressure 29.85 in
Visibility 7.0 miles
Clouds Mostly Cloudy 700 ft
Dew Point 69 °F
Humidity 97%
Rainfall 0.00 in
Snow Depth Not available.
5:59 AM 7:51 PM
Last Quarter, 44% visible
METAR KCRQ 271153Z AUTO 34003KT 7SM BKN007 21/21 A2986 RMK AO2 SLP108 T02110206 10222 20211 56002 $
Pressure 29.85 in
Visibility 7.0 miles
Clouds Mostly Cloudy 700 ft
Dew Point 69 °F
Humidity 97%
Rainfall 0.00 in
Snow Depth Not available.
5:59 AM 7:51 PM
Last Quarter, 44% visible
METAR KCRQ 271153Z AUTO 34003KT 7SM BKN007 21/21 A2986 RMK AO2 SLP108 T02110206 10222 20211 56002 $

10-Day Weather Forecast

Almanac

Astronomy

Jul. 27, 2016 Rise Set
Actual Time
Civil Twilight
Nautical Twilight
Astronomical Twilight
Moon
Length of Visible Light
Length of Day
Tomorrow will be .
, % of the Moon is Illuminated

Today's Extremes

State Highs State Lows

Community

WunderPhotos

Upload Photos

1,927,828 photos uploaded!

WunderBlog® & News

Nearby

Air Quality

  Air Quality AQ Index Pollutant
Not available.

Snow Depth

Station Depth Elevation

Earthquake Activity

City Distance Mag. Time & Date
Minimum magnitude displayed is 2.5.

Coastal Water Temperatures

Place Temperature

Stations

Nearby Weather Stations

Station Location Temp. Windchill Dew Point Humidity Wind Precip. Elev Updated Type
                   

Watches & Warnings

There are currently no watches in effect.